首页
METAR-TAF:

METAR-TAF

机场 :

悉尼机场

悉尼, 澳大利亚

纬度: 33-57S, 经度: 151-11E, 海拔: 6米

当前天气观测

该预报发布于21分钟前的07:00 UTC
风速13节,风向
温度 24°C
湿度 78%
气压 1015 hPa
能见度10公里或以上
少量云层高于1800英尺
多云层高于2200英尺

METAR: YSSY 240700Z 17013KT 9999 FEW018 BKN022 24/20 Q1015 NOSIG

时间: 18:21 (07:21 UTC)

预报

该预报发布于2小时和16分钟前的05:05 UTC
预报有效从24日的 06点(UTC)到 25日的 12点(UTC)
风速14节,风向
能见度10公里或以上
散云层高于1500英尺
多云层高于2000英尺
从 24日的 1600点(UTC)
风速6节,风向西北
能见度10公里或以上
散云层高于2000英尺
从 24日的 2200点(UTC)
风速6节,风向北转西北
能见度10公里或以上
少量云层高于2000英尺
从 25日的 0000点(UTC)
风速14节,风向东北
能见度10公里或以上
1500米以下无云,无积雨云
从 25日的 0400点(UTC)
风速18节,风向东北,有时为28节阵风
能见度10公里或以上
1500米以下无云,无积雨云
从 25日的 1000点(UTC)
风速12节,风向北转东北
能见度10公里或以上
1500米以下无云,无积雨云

TAF: YSSY 240505Z 2406/2512 18014KT 9999 SCT015 BKN020 FM241600 32006KT 9999 SCT020 FM242200 34006KT 9999 FEW020 FM250000 04014KT CAVOK FM250400 04018G28KT CAVOK FM251000 03012KT CAVOK

超过4000个机场的气象观测和天气预报(METAR&TAF报告)。

可查询的气象台以黄色和红色小点在地图上表示。

将鼠标移到小点上方,可查看气象台名称。

然后点击查看天气观测和预报。

如需切换地图:点击带黑十字的绿色按钮放大地图;点击带横线的绿色按钮缩小地图;或者点击绿色箭头查看邻近地区的地图。


METAR-TAF: